Time;durP1;ratioP1;P1;durP2;ratioP2;P2;SDS_P1;SDS_P2;PMS_P1;PMS_P2;Temp;Humidity;BMP_temperature;BMP_pressure;BME280_temperature;BME280_humidity;BME280_pressure;Samples;Min_cycle;Max_cycle;Signal;HPM_P1;HPM_P2
2021/08/10 00:01:04;;;;;;;5.93;3.97;;;26.60;73.10;;;;;;5016733;28;20030;-66
2021/08/10 00:03:30;;;;;;;4.90;4.00;;;26.60;73.30;;;;;;5009683;28;20036;-66
2021/08/10 00:05:55;;;;;;;5.78;3.80;;;26.60;74.10;;;;;;5005854;28;20072;-66
2021/08/10 00:08:22;;;;;;;4.25;3.30;;;26.40;74.30;;;;;;5015221;28;20045;-65
2021/08/10 00:10:50;;;;;;;8.60;3.78;;;26.50;74.50;;;;;;5004811;28;20041;-65
2021/08/10 00:13:19;;;;;;;8.88;4.43;;;26.50;75.20;;;;;;5007992;28;20123;-65
2021/08/10 00:15:44;;;;;;;10.18;4.63;;;26.40;74.40;;;;;;5010995;28;20037;-65
2021/08/10 00:18:10;;;;;;;8.52;4.57;;;26.40;74.60;;;;;;5030741;28;20030;-65
2021/08/10 00:20:36;;;;;;;5.15;4.28;;;26.40;74.90;;;;;;5023144;28;20037;-66
2021/08/10 00:23:03;;;;;;;6.07;4.43;;;26.30;75.90;;;;;;5024511;28;20025;-66
2021/08/10 00:25:29;;;;;;;4.85;4.30;;;26.40;76.20;;;;;;5022956;28;20054;-66
2021/08/10 00:27:55;;;;;;;6.85;4.07;;;26.30;76.30;;;;;;5023471;28;20033;-66
2021/08/10 00:30:22;;;;;;;7.95;4.30;;;26.30;77.00;;;;;;5021512;28;20053;-67
2021/08/10 00:32:48;;;;;;;6.70;4.43;;;26.30;77.30;;;;;;5028235;28;20026;-66
2021/08/10 00:35:13;;;;;;;7.07;4.50;;;26.30;77.90;;;;;;5026077;28;20045;-66
2021/08/10 00:37:39;;;;;;;7.97;4.63;;;26.30;77.90;;;;;;5018157;28;20091;-62
2021/08/10 00:40:06;;;;;;;5.82;4.30;;;26.30;77.80;;;;;;5026220;28;20033;-66
2021/08/10 00:42:31;;;;;;;7.00;5.15;;;26.30;78.60;;;;;;5021246;28;20041;-66
2021/08/10 00:44:57;;;;;;;7.30;4.70;;;26.20;79.50;;;;;;5025919;28;20148;-67
2021/08/10 00:47:22;;;;;;;6.95;4.63;;;26.10;79.80;;;;;;5011649;28;20038;-67
2021/08/10 00:49:48;;;;;;;10.32;5.35;;;26.10;80.60;;;;;;5023101;28;20119;-66
2021/08/10 00:52:14;;;;;;;7.07;4.72;;;26.00;81.80;;;;;;5023567;28;20038;-66
2021/08/10 00:54:40;;;;;;;9.70;5.00;;;26.00;82.40;;;;;;5026453;28;20463;-63
2021/08/10 00:57:05;;;;;;;8.73;4.15;;;26.00;82.30;;;;;;5006302;28;20040;-66
2021/08/10 00:59:31;;;;;;;7.38;4.85;;;25.90;82.70;;;;;;5010517;28;20391;-66
2021/08/10 01:01:57;;;;;;;5.72;5.13;;;25.90;82.40;;;;;;5000515;28;20570;-66
2021/08/10 01:04:23;;;;;;;6.47;4.57;;;25.90;83.40;;;;;;5008112;28;20057;-66
2021/08/10 01:07:12;;;;;;;7.30;4.70;;;25.80;83.90;;;;;;5009354;28;20045;-66
2021/08/10 01:10:02;;;;;;;7.50;5.25;;;25.80;85.50;;;;;;5024514;28;20088;-66
2021/08/10 01:12:44;;;;;;;7.97;5.10;;;25.80;85.90;;;;;;4989725;28;20033;-66
2021/08/10 01:15:14;;;;;;;6.32;4.88;;;25.80;87.30;;;;;;5013818;28;20105;-64
2021/08/10 01:18:01;;;;;;;6.50;4.88;;;25.80;85.60;;;;;;5016142;28;20061;-63
2021/08/10 01:20:44;;;;;;;8.63;4.40;;;25.80;86.50;;;;;;5022149;28;20038;-66
2021/08/10 01:23:12;;;;;;;6.55;4.70;;;25.60;86.00;;;;;;5018130;28;20339;-63
2021/08/10 01:26:16;;;;;;;8.95;5.13;;;25.60;86.50;;;;;;5026296;28;20109;-66
2021/08/10 01:29:12;;;;;;;9.00;4.75;;;25.70;86.90;;;;;;4955476;28;20037;-65
2021/08/10 01:31:42;;;;;;;7.00;4.95;;;25.60;88.40;;;;;;5028524;28;20049;-66
2021/08/10 01:34:22;;;;;;;5.90;4.60;;;25.70;86.70;;;;;;5009775;28;20034;-66
2021/08/10 01:36:48;;;;;;;7.38;5.07;;;25.70;88.60;;;;;;4995185;28;20040;-65
2021/08/10 01:39:15;;;;;;;8.73;5.22;;;25.70;86.80;;;;;;5010196;28;20498;-65
2021/08/10 01:41:42;;;;;;;7.22;5.00;;;25.60;87.00;;;;;;5014382;28;20139;-65
2021/08/10 01:44:09;;;;;;;7.68;4.82;;;25.70;86.60;;;;;;5026512;28;20506;-66
2021/08/10 01:46:36;;;;;;;8.25;5.15;;;25.70;86.60;;;;;;5031233;28;20038;-66
2021/08/10 01:49:02;;;;;;;7.68;5.60;;;25.70;86.60;;;;;;5026724;28;20386;-66
2021/08/10 01:51:30;;;;;;;6.70;5.07;;;25.60;87.10;;;;;;5013928;28;20046;-66
2021/08/10 01:53:58;;;;;;;7.07;4.78;;;25.50;87.70;;;;;;5005782;28;20084;-66
2021/08/10 01:56:25;;;;;;;5.90;5.25;;;25.50;88.20;;;;;;5010057;28;20121;-66
2021/08/10 01:58:53;;;;;;;7.38;5.38;;;25.50;88.50;;;;;;5011710;28;20045;-67
2021/08/10 02:01:19;;;;;;;6.25;4.65;;;25.40;89.00;;;;;;5006856;28;20088;-66
2021/08/10 02:03:45;;;;;;;6.30;4.65;;;25.50;88.60;;;;;;5007589;28;20042;-65
2021/08/10 02:06:14;;;;;;;5.85;5.07;;;25.50;88.80;;;;;;5005178;28;20449;-65
2021/08/10 02:08:41;;;;;;;9.00;5.50;;;25.50;89.00;;;;;;5016586;28;20034;-62
2021/08/10 02:11:08;;;;;;;8.27;6.20;;;25.50;88.60;;;;;;5016978;28;20041;-67
2021/08/10 02:13:35;;;;;;;8.52;5.93;;;25.50;88.70;;;;;;5020994;28;20546;-66
2021/08/10 02:16:01;;;;;;;8.63;5.82;;;25.40;89.30;;;;;;5020165;28;20058;-67
2021/08/10 02:18:27;;;;;;;9.77;6.32;;;25.50;89.30;;;;;;5004169;28;20053;-66
2021/08/10 02:20:57;;;;;;;9.07;6.13;;;25.40;90.00;;;;;;5022392;28;20041;-66
2021/08/10 02:23:28;;;;;;;9.27;6.90;;;25.50;90.00;;;;;;5006363;28;20088;-66
2021/08/10 02:25:55;;;;;;;8.82;6.07;;;25.50;90.10;;;;;;5004006;28;20052;-66
2021/08/10 02:28:21;;;;;;;7.60;5.47;;;25.50;89.40;;;;;;5021532;28;20044;-66
2021/08/10 02:30:52;;;;;;;9.20;6.20;;;25.50;90.10;;;;;;5023446;28;20112;-66
2021/08/10 02:33:20;;;;;;;10.45;6.32;;;25.50;90.10;;;;;;5017278;28;20037;-66
2021/08/10 02:35:47;;;;;;;10.07;6.38;;;25.50;90.00;;;;;;5021562;28;20034;-66
2021/08/10 02:38:17;;;;;;;8.70;5.88;;;25.50;89.90;;;;;;5024856;28;20033;-66
2021/08/10 02:40:46;;;;;;;7.25;5.85;;;25.50;90.50;;;;;;5011525;28;20038;-66
2021/08/10 02:43:13;;;;;;;6.30;5.70;;;25.40;90.60;;;;;;5010590;28;20518;-65
2021/08/10 02:45:39;;;;;;;9.57;6.22;;;25.30;90.70;;;;;;5007802;28;20033;-66
2021/08/10 02:48:05;;;;;;;6.85;5.97;;;25.30;90.70;;;;;;5009426;28;20047;-66
2021/08/10 02:50:31;;;;;;;7.07;6.38;;;25.20;91.00;;;;;;5022945;28;20054;-66
2021/08/10 02:52:57;;;;;;;9.45;6.82;;;25.30;91.10;;;;;;5023725;28;20030;-66
2021/08/10 02:55:24;;;;;;;7.85;6.03;;;25.20;91.20;;;;;;5031010;28;20045;-66
2021/08/10 02:58:04;;;;;;;8.25;5.68;;;25.20;91.10;;;;;;5021693;28;20073;-65
2021/08/10 03:00:34;;;;;;;7.53;6.15;;;25.20;92.20;;;;;;5014965;28;20034;-66
2021/08/10 03:03:09;;;;;;;7.00;6.30;;;25.30;91.10;;;;;;5014272;28;20037;-65
2021/08/10 03:05:37;;;;;;;6.03;5.43;;;25.30;90.60;;;;;;5026370;28;20029;-66
2021/08/10 03:08:07;;;;;;;6.80;5.68;;;25.30;90.80;;;;;;5017815;28;20144;-65
2021/08/10 03:10:36;;;;;;;6.55;5.75;;;25.30;90.50;;;;;;5007194;28;20046;-65
2021/08/10 03:13:05;;;;;;;6.43;5.50;;;25.30;90.70;;;;;;5007477;28;20033;-65
2021/08/10 03:15:33;;;;;;;9.98;6.78;;;25.20;91.30;;;;;;5022085;28;20481;-66
2021/08/10 03:18:05;;;;;;;9.02;6.07;;;25.20;91.10;;;;;;5015440;28;20054;-66
2021/08/10 03:20:35;;;;;;;8.80;5.97;;;25.20;91.10;;;;;;5016022;28;20068;-67
2021/08/10 03:23:01;;;;;;;7.82;6.00;;;25.20;91.60;;;;;;5023987;28;20494;-66
2021/08/10 03:25:28;;;;;;;8.27;5.78;;;25.20;91.10;;;;;;5029023;28;20033;-66
2021/08/10 03:27:55;;;;;;;8.45;5.78;;;25.20;91.10;;;;;;5021729;28;20095;-66
2021/08/10 03:30:21;;;;;;;7.03;6.15;;;25.10;91.20;;;;;;5028677;28;20099;-66
2021/08/10 03:32:50;;;;;;;6.30;5.70;;;25.10;91.40;;;;;;5011823;28;20419;-65
2021/08/10 03:35:17;;;;;;;9.27;6.55;;;25.10;91.50;;;;;;5013174;28;20068;-65
2021/08/10 03:37:44;;;;;;;6.57;5.82;;;25.10;91.50;;;;;;4994165;28;20034;-65
2021/08/10 03:40:10;;;;;;;6.93;5.65;;;25.00;91.80;;;;;;5013363;28;20132;-68
2021/08/10 03:42:37;;;;;;;6.78;5.00;;;25.10;91.30;;;;;;5028946;28;20041;-66
2021/08/10 03:45:04;;;;;;;11.20;5.80;;;25.00;91.80;;;;;;5023128;28;20120;-66
2021/08/10 03:47:31;;;;;;;6.07;5.47;;;25.00;91.80;;;;;;5028098;28;20041;-65
2021/08/10 03:49:58;;;;;;;12.57;5.72;;;25.00;91.50;;;;;;5021094;28;20102;-66
2021/08/10 03:52:23;;;;;;;8.60;5.10;;;24.90;91.70;;;;;;5028253;28;20034;-66
2021/08/10 03:54:49;;;;;;;8.50;6.00;;;24.90;91.80;;;;;;5006922;28;20129;-66
2021/08/10 03:57:17;;;;;;;8.80;5.32;;;24.90;91.80;;;;;;5021052;28;20475;-66
2021/08/10 03:59:45;;;;;;;9.45;5.40;;;24.90;92.00;;;;;;5021487;28;20111;-61
2021/08/10 04:02:14;;;;;;;8.38;6.07;;;24.90;92.00;;;;;;5027675;28;20399;-67
2021/08/10 04:04:41;;;;;;;8.32;5.68;;;24.90;92.20;;;;;;4988452;28;20038;-66
2021/08/10 04:07:08;;;;;;;6.95;5.70;;;24.90;91.80;;;;;;5007695;28;20066;-66
2021/08/10 04:09:36;;;;;;;8.70;6.13;;;24.90;92.40;;;;;;5003189;28;20069;-66
2021/08/10 04:12:08;;;;;;;6.35;5.20;;;24.80;92.60;;;;;;5011668;28;20041;-66
2021/08/10 04:14:34;;;;;;;7.82;5.88;;;24.90;92.40;;;;;;5001961;28;20396;-67
2021/08/10 04:17:02;;;;;;;9.77;5.70;;;24.80;91.90;;;;;;5011669;28;20096;-66
2021/08/10 04:19:30;;;;;;;7.85;5.00;;;24.80;92.30;;;;;;5000671;28;20038;-66
2021/08/10 04:21:56;;;;;;;7.28;5.72;;;24.70;92.20;;;;;;5007919;28;20445;-65
2021/08/10 04:24:22;;;;;;;5.63;4.70;;;24.80;92.10;;;;;;5008014;28;20128;-66
2021/08/10 04:26:47;;;;;;;6.30;4.90;;;24.80;92.20;;;;;;5016995;28;20067;-65
2021/08/10 04:29:13;;;;;;;8.38;5.18;;;24.80;92.20;;;;;;5017446;28;20132;-59
2021/08/10 04:31:39;;;;;;;7.63;4.97;;;24.80;92.40;;;;;;5024210;28;20079;-65
2021/08/10 04:34:05;;;;;;;7.20;5.70;;;24.80;92.40;;;;;;5024921;28;20033;-66
2021/08/10 04:36:31;;;;;;;10.73;5.88;;;24.80;92.20;;;;;;5021210;28;20088;-65
2021/08/10 04:38:56;;;;;;;6.65;5.70;;;24.80;92.30;;;;;;5030739;28;20091;-65
2021/08/10 04:41:22;;;;;;;5.82;4.95;;;24.80;92.10;;;;;;5006584;28;20432;-65
2021/08/10 04:43:48;;;;;;;6.80;5.80;;;24.80;92.10;;;;;;5007637;28;20050;-65
2021/08/10 04:46:14;;;;;;;8.43;5.70;;;24.80;91.90;;;;;;5011165;28;20046;-64
2021/08/10 04:48:39;;;;;;;9.43;5.78;;;24.90;92.20;;;;;;5015133;28;20482;-65
2021/08/10 04:51:05;;;;;;;8.27;6.25;;;24.90;92.10;;;;;;5012552;28;20049;-65
2021/08/10 04:53:30;;;;;;;10.48;5.90;;;24.80;91.80;;;;;;5026242;28;20407;-65
2021/08/10 04:55:56;;;;;;;6.22;5.57;;;24.80;92.20;;;;;;5022501;28;20446;-65
2021/08/10 04:58:22;;;;;;;9.02;5.88;;;24.90;92.20;;;;;;5025345;28;20037;-65
2021/08/10 05:00:48;;;;;;;7.75;5.18;;;24.80;92.30;;;;;;5025156;28;20092;-66
2021/08/10 05:03:14;;;;;;;7.22;5.65;;;24.80;92.50;;;;;;5022807;28;20465;-65
2021/08/10 05:05:39;;;;;;;8.23;6.43;;;24.80;92.80;;;;;;5034161;28;20037;-65
2021/08/10 05:08:06;;;;;;;8.40;6.40;;;24.80;92.80;;;;;;4995060;28;20395;-65
2021/08/10 05:10:32;;;;;;;6.97;6.25;;;24.70;92.80;;;;;;5012799;28;20042;-65
2021/08/10 05:12:58;;;;;;;8.40;5.90;;;24.80;93.00;;;;;;5020677;28;20052;-65
2021/08/10 05:15:23;;;;;;;7.20;6.05;;;24.80;93.10;;;;;;5012728;28;20121;-65
2021/08/10 05:17:49;;;;;;;9.23;5.93;;;24.80;93.40;;;;;;5007257;28;20038;-65
2021/08/10 05:20:15;;;;;;;9.02;6.00;;;24.80;93.40;;;;;;5020073;28;20048;-65
2021/08/10 05:22:43;;;;;;;9.98;7.13;;;24.70;93.20;;;;;;5023350;28;20034;-65
2021/08/10 05:25:10;;;;;;;8.50;6.65;;;24.60;93.80;;;;;;5030524;28;20059;-65
2021/08/10 05:27:36;;;;;;;10.55;6.40;;;24.70;93.90;;;;;;5027021;28;20471;-65
2021/08/10 05:30:03;;;;;;;8.77;6.45;;;24.60;94.20;;;;;;5029959;28;20123;-65
2021/08/10 05:32:29;;;;;;;9.43;6.40;;;24.50;94.10;;;;;;5012126;28;20049;-65
2021/08/10 05:34:54;;;;;;;11.00;6.25;;;24.50;94.20;;;;;;5009179;28;20147;-65
2021/08/10 05:37:20;;;;;;;11.07;6.85;;;24.50;94.20;;;;;;5014248;28;20037;-65
2021/08/10 05:39:45;;;;;;;8.57;6.72;;;24.50;94.50;;;;;;5030558;28;20033;-65
2021/08/10 05:42:11;;;;;;;9.05;6.25;;;24.40;95.10;;;;;;5023502;28;20029;-65
2021/08/10 05:44:36;;;;;;;9.63;7.68;;;24.30;94.90;;;;;;5025797;28;20041;-65
2021/08/10 05:47:02;;;;;;;7.18;6.47;;;24.40;95.00;;;;;;5029599;28;20037;-65
2021/08/10 05:49:28;;;;;;;8.13;7.28;;;24.50;95.00;;;;;;5025781;28;20045;-65
2021/08/10 05:51:53;;;;;;;10.07;7.22;;;24.40;95.30;;;;;;5030162;28;20483;-66
2021/08/10 05:54:19;;;;;;;10.93;6.78;;;24.40;95.20;;;;;;5024927;28;20446;-65
2021/08/10 05:56:46;;;;;;;13.02;8.05;;;24.40;95.20;;;;;;5021534;28;20124;-65
2021/08/10 05:59:12;;;;;;;9.05;7.15;;;24.50;94.90;;;;;;5025592;28;20117;-65
2021/08/10 06:01:38;;;;;;;11.02;7.03;;;24.50;95.20;;;;;;5014777;28;20494;-66
2021/08/10 06:04:05;;;;;;;11.07;7.38;;;24.60;94.70;;;;;;5002100;28;20133;-66
2021/08/10 06:06:33;;;;;;;8.23;7.05;;;24.60;94.80;;;;;;5015626;28;20038;-65
2021/08/10 06:09:00;;;;;;;14.60;7.57;;;24.60;94.60;;;;;;5026315;28;20551;-65
2021/08/10 06:11:26;;;;;;;8.77;7.22;;;24.60;94.70;;;;;;5029870;28;20067;-65
2021/08/10 06:13:51;;;;;;;11.20;7.82;;;24.70;94.50;;;;;;5009372;28;20488;-66
2021/08/10 06:16:17;;;;;;;11.00;7.90;;;24.60;94.40;;;;;;5021043;28;20041;-66
2021/08/10 06:18:42;;;;;;;9.38;7.72;;;24.70;94.50;;;;;;5030307;28;20063;-66
2021/08/10 06:21:08;;;;;;;11.50;7.95;;;24.80;94.90;;;;;;5021806;28;20037;-66
2021/08/10 06:23:34;;;;;;;12.52;8.13;;;24.70;94.60;;;;;;5010477;28;20060;-66
2021/08/10 06:26:00;;;;;;;11.90;8.18;;;24.70;94.30;;;;;;5021351;28;20082;-66
2021/08/10 06:28:25;;;;;;;8.68;7.20;;;24.70;94.40;;;;;;5013423;28;20042;-66
2021/08/10 06:30:51;;;;;;;9.63;7.03;;;24.80;94.20;;;;;;5008468;28;20747;-65
2021/08/10 06:33:17;;;;;;;10.48;7.68;;;24.80;94.40;;;;;;5010334;28;20052;-65
2021/08/10 06:35:42;;;;;;;9.63;7.85;;;24.80;94.20;;;;;;5006941;28;20373;-66
2021/08/10 06:38:08;;;;;;;10.63;7.97;;;24.90;94.10;;;;;;5013617;28;20045;-66
2021/08/10 06:40:33;;;;;;;11.07;7.55;;;24.90;94.30;;;;;;5012305;28;20553;-66
2021/08/10 06:42:59;;;;;;;12.95;9.05;;;25.00;93.90;;;;;;5008775;28;20041;-66
2021/08/10 06:45:24;;;;;;;10.88;7.78;;;25.00;93.80;;;;;;5018177;28;20081;-66
2021/08/10 06:47:52;;;;;;;12.73;7.75;;;25.00;93.80;;;;;;5007405;28;20068;-65
2021/08/10 06:50:18;;;;;;;14.82;8.13;;;25.00;93.70;;;;;;5008363;28;20719;-66
2021/08/10 06:52:44;;;;;;;11.07;7.80;;;25.10;93.50;;;;;;4992993;28;20076;-66
2021/08/10 06:55:10;;;;;;;16.50;8.40;;;25.10;93.80;;;;;;5007782;28;20521;-66
2021/08/10 06:57:38;;;;;;;14.68;7.85;;;25.10;93.40;;;;;;5011632;28;20042;-66
2021/08/10 07:00:05;;;;;;;9.63;7.38;;;25.10;93.10;;;;;;5028753;28;20041;-66
2021/08/10 07:02:30;;;;;;;12.35;7.93;;;25.10;93.30;;;;;;5024002;28;20502;-66
2021/08/10 07:04:56;;;;;;;8.18;7.03;;;25.20;93.10;;;;;;5012302;28;20050;-66
2021/08/10 07:07:21;;;;;;;11.10;7.10;;;25.20;92.90;;;;;;5025045;28;20049;-66
2021/08/10 07:09:47;;;;;;;12.18;7.05;;;25.30;92.70;;;;;;5012846;28;20040;-65
2021/08/10 07:12:13;;;;;;;10.88;7.60;;;25.40;92.30;;;;;;5007753;28;20072;-66
2021/08/10 07:14:38;;;;;;;10.00;7.65;;;25.30;92.10;;;;;;5028902;28;20033;-66
2021/08/10 07:17:04;;;;;;;10.25;6.22;;;25.40;92.10;;;;;;5023304;28;20068;-65
2021/08/10 07:19:29;;;;;;;10.40;6.45;;;25.50;91.90;;;;;;5027020;28;20449;-66
2021/08/10 07:21:55;;;;;;;12.27;6.35;;;25.50;91.70;;;;;;5001694;28;20041;-66
2021/08/10 07:24:21;;;;;;;10.30;6.03;;;25.60;91.20;;;;;;5017530;28;20034;-66
2021/08/10 07:26:47;;;;;;;9.88;5.68;;;25.70;90.50;;;;;;5013756;28;20103;-66
2021/08/10 07:29:12;;;;;;;12.82;5.63;;;25.70;90.10;;;;;;5017487;28;20049;-66
2021/08/10 07:31:38;;;;;;;8.85;5.63;;;25.70;87.60;;;;;;5022574;28;20583;-67
2021/08/10 07:34:04;;;;;;;8.95;6.05;;;25.80;88.30;;;;;;5025265;28;20045;-66
2021/08/10 07:36:29;;;;;;;10.65;5.22;;;25.80;87.30;;;;;;5024209;28;20030;-67
2021/08/10 07:38:55;;;;;;;8.60;4.97;;;25.80;84.30;;;;;;5024059;28;20029;-66
2021/08/10 07:41:21;;;;;;;8.43;5.32;;;25.90;83.80;;;;;;5024142;28;20124;-66
2021/08/10 07:43:46;;;;;;;6.97;4.65;;;25.90;84.10;;;;;;5023860;28;20064;-66
2021/08/10 07:46:12;;;;;;;7.43;5.18;;;26.00;83.90;;;;;;5025301;28;20033;-66
2021/08/10 07:48:38;;;;;;;8.15;5.45;;;26.10;84.20;;;;;;5011359;28;20443;-66
2021/08/10 07:51:03;;;;;;;10.00;4.90;;;26.00;83.20;;;;;;5008509;28;20565;-66
2021/08/10 07:53:29;;;;;;;11.35;4.95;;;26.10;82.90;;;;;;5019854;28;20044;-65
2021/08/10 07:55:55;;;;;;;7.45;4.70;;;26.20;82.10;;;;;;5007231;28;20073;-66
2021/08/10 07:58:20;;;;;;;10.18;4.82;;;26.20;79.50;;;;;;5020640;28;20041;-66
2021/08/10 08:00:46;;;;;;;9.98;5.57;;;26.20;79.00;;;;;;5007834;28;20033;-66
2021/08/10 08:03:11;;;;;;;15.80;5.38;;;26.30;78.70;;;;;;5023203;28;20029;-65
2021/08/10 08:05:38;;;;;;;6.45;4.40;;;26.30;77.90;;;;;;5026320;28;20103;-65
2021/08/10 08:08:04;;;;;;;6.70;4.20;;;26.30;77.20;;;;;;5024982;28;20026;-66
2021/08/10 08:10:29;;;;;;;7.20;4.80;;;26.40;75.50;;;;;;5026114;28;20051;-65
2021/08/10 08:12:55;;;;;;;9.00;4.75;;;26.40;76.90;;;;;;5028058;28;20134;-65
2021/08/10 08:15:21;;;;;;;5.38;4.88;;;26.50;77.00;;;;;;5013465;28;20041;-65
2021/08/10 08:17:46;;;;;;;6.82;5.10;;;26.50;76.90;;;;;;5014393;28;20056;-65
2021/08/10 08:20:13;;;;;;;7.57;4.70;;;26.60;78.60;;;;;;5009328;28;20097;-65
2021/08/10 08:22:38;;;;;;;7.28;5.10;;;26.60;76.50;;;;;;5010398;28;20045;-67
2021/08/10 08:25:05;;;;;;;6.35;4.68;;;26.70;74.00;;;;;;4993455;28;20045;-66
2021/08/10 08:27:31;;;;;;;9.82;5.18;;;26.70;74.70;;;;;;5005475;28;20041;-66
2021/08/10 08:29:56;;;;;;;7.97;4.55;;;26.80;74.30;;;;;;5003244;28;20456;-65
2021/08/10 08:32:22;;;;;;;8.00;4.90;;;26.80;73.80;;;;;;5017222;28;20045;-65
2021/08/10 08:34:48;;;;;;;8.30;4.68;;;26.80;74.10;;;;;;5022636;28;20030;-65
2021/08/10 08:37:14;;;;;;;7.28;5.22;;;26.90;73.50;;;;;;5026833;28;20057;-60
2021/08/10 08:39:39;;;;;;;9.43;5.30;;;26.90;73.70;;;;;;5018613;28;20118;-66
2021/08/10 08:42:05;;;;;;;8.48;4.80;;;27.00;73.80;;;;;;5023130;28;20112;-66
2021/08/10 08:44:36;;;;;;;7.05;5.25;;;27.10;73.10;;;;;;5013163;28;20030;-67
2021/08/10 08:47:07;;;;;;;16.20;6.28;;;27.10;72.90;;;;;;5017535;28;20053;-66
2021/08/10 08:49:34;;;;;;;8.73;5.55;;;27.10;71.90;;;;;;5009231;28;20079;-66
2021/08/10 08:52:02;;;;;;;7.82;4.95;;;27.20;70.40;;;;;;5022688;28;20033;-66
2021/08/10 08:54:30;;;;;;;9.10;4.70;;;27.20;71.30;;;;;;5026624;28;20049;-66
2021/08/10 08:56:56;;;;;;;7.60;4.45;;;27.20;71.50;;;;;;5020237;28;20046;-66
2021/08/10 08:59:22;;;;;;;7.57;4.80;;;27.30;70.30;;;;;;5026805;28;20095;-65
2021/08/10 09:01:49;;;;;;;5.80;4.53;;;27.40;68.80;;;;;;5022824;28;20037;-65
2021/08/10 09:04:15;;;;;;;9.10;4.88;;;27.40;68.00;;;;;;5030120;28;20403;-65
2021/08/10 09:06:41;;;;;;;5.32;4.32;;;27.40;67.60;;;;;;5018831;28;20037;-66
2021/08/10 09:09:23;;;;;;;8.30;4.78;;;27.40;68.00;;;;;;5017469;28;20042;-67
2021/08/10 09:11:51;;;;;;;7.85;4.80;;;27.50;68.00;;;;;;5006911;28;20112;-67
2021/08/10 09:14:17;;;;;;;8.25;5.20;;;27.50;67.70;;;;;;5009642;28;20499;-66
2021/08/10 09:17:08;;;;;;;10.70;4.38;;;27.50;68.20;;;;;;5003107;28;20033;-66
2021/08/10 09:19:49;;;;;;;6.95;4.45;;;27.60;66.30;;;;;;4983680;28;20069;-67
2021/08/10 09:22:21;;;;;;;6.53;4.20;;;27.50;65.00;;;;;;5002715;28;20120;-65
2021/08/10 09:24:52;;;;;;;8.68;4.40;;;27.50;65.90;;;;;;5015541;28;20583;-66
2021/08/10 09:27:29;;;;;;;5.20;3.92;;;27.70;66.30;;;;;;5000080;28;20049;-67
2021/08/10 09:29:55;;;;;;;9.02;3.95;;;27.70;66.20;;;;;;5006890;28;20139;-67
2021/08/10 09:32:21;;;;;;;8.20;4.65;;;27.80;66.10;;;;;;5012229;28;20037;-66
2021/08/10 09:35:08;;;;;;;11.35;4.53;;;27.80;65.40;;;;;;4997403;28;20034;-66
2021/08/10 09:37:34;;;;;;;8.57;4.38;;;27.80;64.40;;;;;;5004605;28;20050;-66
2021/08/10 09:40:00;;;;;;;6.68;4.55;;;27.80;65.90;;;;;;5010593;28;20036;-66
2021/08/10 09:42:26;;;;;;;7.78;4.80;;;27.90;65.80;;;;;;5003839;28;20396;-66
2021/08/10 09:44:58;;;;;;;7.15;4.35;;;27.80;65.60;;;;;;5007725;28;20033;-66
2021/08/10 09:47:32;;;;;;;6.72;4.03;;;27.80;64.60;;;;;;4999850;28;20037;-66
2021/08/10 09:49:58;;;;;;;6.80;4.55;;;27.70;65.80;;;;;;5026849;28;20105;-66
2021/08/10 09:52:26;;;;;;;4.95;4.38;;;27.80;65.10;;;;;;5021540;28;20186;-66
2021/08/10 09:54:53;;;;;;;6.47;4.85;;;27.80;64.90;;;;;;5009549;28;20539;-66
2021/08/10 09:57:19;;;;;;;7.82;4.57;;;27.90;64.70;;;;;;5016448;28;20034;-67
2021/08/10 09:59:44;;;;;;;6.03;4.38;;;27.90;64.50;;;;;;5016098;28;20404;-64
2021/08/10 10:02:21;;;;;;;8.93;4.25;;;28.00;63.60;;;;;;5020500;28;20037;-66
2021/08/10 10:04:52;;;;;;;7.47;4.72;;;28.10;63.70;;;;;;5013633;28;20122;-65
2021/08/10 10:07:18;;;;;;;7.13;4.60;;;28.10;63.60;;;;;;5009431;28;20057;-66
2021/08/10 10:09:44;;;;;;;5.10;4.60;;;28.30;63.20;;;;;;5017777;28;20037;-67
2021/08/10 10:12:10;;;;;;;6.43;5.00;;;28.40;62.40;;;;;;5018310;28;20061;-66
2021/08/10 10:14:38;;;;;;;6.68;4.47;;;28.40;62.10;;;;;;5021171;28;20033;-67
2021/08/10 10:17:05;;;;;;;5.68;4.20;;;28.40;62.00;;;;;;5025533;28;20036;-66
2021/08/10 10:19:38;;;;;;;5.18;4.00;;;28.50;61.60;;;;;;5025253;28;20037;-66
2021/08/10 10:22:13;;;;;;;6.30;4.20;;;28.70;60.50;;;;;;5016328;28;20038;-66
2021/08/10 10:24:40;;;;;;;8.00;4.95;;;28.80;60.90;;;;;;5025255;28;20037;-66
2021/08/10 10:27:07;;;;;;;8.27;4.75;;;28.70;60.80;;;;;;5025158;28;20045;-66
2021/08/10 10:29:33;;;;;;;7.32;4.70;;;28.70;59.80;;;;;;5024852;28;20495;-66
2021/08/10 10:31:59;;;;;;;10.20;4.90;;;28.80;58.90;;;;;;5027202;28;20057;-66
2021/08/10 10:34:26;;;;;;;4.93;4.25;;;28.80;58.80;;;;;;5023610;28;20041;-66
2021/08/10 10:36:52;;;;;;;8.73;4.70;;;29.00;58.80;;;;;;5020700;28;20041;-66
2021/08/10 10:39:33;;;;;;;7.25;4.90;;;29.00;58.40;;;;;;5023537;28;20052;-66
2021/08/10 10:42:02;;;;;;;6.70;4.93;;;29.10;57.50;;;;;;5016968;28;20061;-66
2021/08/10 10:44:45;;;;;;;11.50;5.30;;;29.10;58.90;;;;;;5005981;28;20458;-66
2021/08/10 10:47:20;;;;;;;7.27;4.30;;;29.20;58.60;;;;;;5020495;28;20102;-66
2021/08/10 10:50:06;;;;;;;6.85;5.25;;;29.30;57.30;;;;;;5017045;28;20042;-66
2021/08/10 10:52:34;;;;;;;7.65;4.32;;;29.40;56.90;;;;;;5028382;28;20365;-66
2021/08/10 10:55:01;;;;;;;5.25;3.80;;;29.50;55.70;;;;;;5023729;28;20046;-66
2021/08/10 10:57:30;;;;;;;7.93;5.25;;;29.50;55.60;;;;;;5012382;28;20073;-66
2021/08/10 11:00:11;;;;;;;7.25;4.35;;;29.70;55.90;;;;;;5008092;28;20495;-67
2021/08/10 11:02:38;;;;;;;6.05;4.47;;;29.80;54.90;;;;;;5026039;28;20044;-67
2021/08/10 11:05:07;;;;;;;5.90;4.70;;;29.90;53.90;;;;;;5025823;28;20029;-67
2021/08/10 11:08:00;;;;;;;7.78;4.75;;;30.10;53.90;;;;;;5025937;28;20045;-67
2021/08/10 11:10:41;;;;;;;6.70;5.18;;;30.10;53.50;;;;;;4993175;28;20045;-67
2021/08/10 11:13:18;;;;;;;6.47;4.10;;;30.20;52.00;;;;;;5011654;28;20379;-67
2021/08/10 11:15:44;;;;;;;5.20;4.63;;;30.30;51.90;;;;;;5003860;28;20385;-67
2021/08/10 11:18:10;;;;;;;5.32;4.45;;;30.40;52.30;;;;;;5005977;28;20045;-66
2021/08/10 11:20:35;;;;;;;4.95;4.10;;;30.50;50.50;;;;;;5027376;28;20041;-67
2021/08/10 11:25:49;;;;;;;5.68;4.78;;;30.80;49.70;;;;;;5021107;28;20037;-62
2021/08/10 11:28:32;;;;;;;6.47;3.78;;;30.90;50.40;;;;;;5006769;28;20046;-63
2021/08/10 11:31:03;;;;;;;9.18;5.20;;;31.40;50.00;;;;;;5024184;28;20042;-66
2021/08/10 11:33:35;;;;;;;4.95;4.50;;;31.80;47.20;;;;;;5023295;28;20064;-66
2021/08/10 11:36:09;;;;;;;6.70;4.07;;;32.00;46.70;;;;;;5019724;28;20045;-67
2021/08/10 11:38:35;;;;;;;5.22;3.72;;;32.50;44.60;;;;;;5021794;28;20069;-67
2021/08/10 11:41:03;;;;;;;4.97;3.60;;;32.80;43.80;;;;;;5017437;28;20104;-67
2021/08/10 11:43:39;;;;;;;7.45;4.43;;;33.30;43.90;;;;;;5005265;28;20041;-67
2021/08/10 11:46:13;;;;;;;6.63;4.38;;;33.50;40.80;;;;;;5029082;28;21048;-67
2021/08/10 11:48:47;;;;;;;5.90;4.15;;;33.60;41.10;;;;;;5022606;28;20041;-67
2021/08/10 11:51:23;;;;;;;6.00;4.10;;;34.00;39.80;;;;;;5027774;28;20491;-67
2021/08/10 11:53:52;;;;;;;5.68;4.25;;;34.10;38.40;;;;;;5021768;28;20059;-67
2021/08/10 11:56:37;;;;;;;3.47;3.17;;;35.30;35.10;;;;;;5028022;28;20448;-67
2021/08/10 11:59:05;;;;;;;4.88;3.58;;;36.70;32.30;;;;;;5024068;28;20033;-67
2021/08/10 12:01:36;;;;;;;7.88;4.07;;;35.90;34.00;;;;;;5025390;28;20491;-67
2021/08/10 12:04:17;;;;;;;4.65;4.05;;;35.30;34.90;;;;;;5005765;28;20140;-67
2021/08/10 12:06:45;;;;;;;6.30;4.63;;;35.30;34.80;;;;;;5018787;28;20068;-67
2021/08/10 12:09:19;;;;;;;9.30;4.10;;;35.30;35.20;;;;;;5022697;28;20061;-67
2021/08/10 12:11:50;;;;;;;5.93;4.38;;;35.20;35.10;;;;;;5020986;28;20267;-63
2021/08/10 12:14:24;;;;;;;4.63;3.65;;;35.50;35.50;;;;;;5007053;28;20030;-67
2021/08/10 12:17:07;;;;;;;;;;;35.60;34.40;;;;;;5006770;28;20219;-67
2021/08/10 12:19:44;;;;;;;7.13;3.80;;;35.70;33.40;;;;;;5017160;28;20347;-66
2021/08/10 12:22:23;;;;;;;5.22;3.70;;;35.80;33.00;;;;;;5017931;28;20042;-67
2021/08/10 12:24:50;;;;;;;4.57;4.18;;;36.10;32.00;;;;;;5016354;28;20038;-67
2021/08/10 12:27:17;;;;;;;6.10;4.10;;;36.20;32.40;;;;;;5009225;28;20381;-65
2021/08/10 12:29:48;;;;;;;4.93;4.28;;;36.80;30.70;;;;;;5022035;28;20496;-66
2021/08/10 12:32:24;;;;;;;4.22;3.80;;;38.60;29.50;;;;;;5023986;28;20610;-66
2021/08/10 12:34:50;;;;;;;5.30;3.58;;;39.10;27.20;;;;;;5000595;28;20495;-66
2021/08/10 12:37:17;;;;;;;4.32;3.85;;;39.40;27.50;;;;;;4991679;28;20042;-67
2021/08/10 12:39:44;;;;;;;6.47;4.50;;;39.40;27.00;;;;;;5023282;28;20534;-66
2021/08/10 12:42:11;;;;;;;5.18;3.88;;;39.10;26.50;;;;;;5024776;28;20073;-66
2021/08/10 12:44:38;;;;;;;4.50;3.53;;;38.60;26.60;;;;;;5022188;28;20029;-66
2021/08/10 12:47:09;;;;;;;5.00;4.50;;;40.40;25.00;;;;;;5025710;28;20046;-66
2021/08/10 12:49:37;;;;;;;3.97;3.67;;;41.50;24.10;;;;;;5022928;28;20080;-67
2021/08/10 12:52:11;;;;;;;5.95;3.90;;;41.00;23.40;;;;;;5026269;28;20041;-66
2021/08/10 12:54:38;;;;;;;4.40;3.97;;;42.70;24.20;;;;;;5021214;28;20050;-67